sensor_id;sensor_type;location;lat;lon;timestamp;temperature;humidity
75380;HTU21D;64279;44.714;37.756;2022-11-20T00:00:16;15.53;84.96
75380;HTU21D;64279;44.714;37.756;2022-11-20T00:01:24;15.54;84.80
75380;HTU21D;64279;44.714;37.756;2022-11-20T00:02:28;15.56;84.81
75380;HTU21D;64279;44.714;37.756;2022-11-20T00:03:30;15.56;84.87
75380;HTU21D;64279;44.714;37.756;2022-11-20T00:04:33;15.57;84.75
75380;HTU21D;64279;44.714;37.756;2022-11-20T00:05:35;15.57;84.74
75380;HTU21D;64279;44.714;37.756;2022-11-20T00:06:38;15.59;84.75
75380;HTU21D;64279;44.714;37.756;2022-11-20T00:07:40;15.60;84.75
75380;HTU21D;64279;44.714;37.756;2022-11-20T00:08:43;15.60;84.67
75380;HTU21D;64279;44.714;37.756;2022-11-20T00:09:46;15.62;84.65
75380;HTU21D;64279;44.714;37.756;2022-11-20T00:10:49;15.63;84.63
75380;HTU21D;64279;44.714;37.756;2022-11-20T00:11:52;15.63;84.60
75380;HTU21D;64279;44.714;37.756;2022-11-20T00:12:54;15.67;84.61
75380;HTU21D;64279;44.714;37.756;2022-11-20T00:14:00;15.68;84.55
75380;HTU21D;64279;44.714;37.756;2022-11-20T00:15:04;15.69;84.50
75380;HTU21D;64279;44.714;37.756;2022-11-20T00:16:09;15.69;84.42
75380;HTU21D;64279;44.714;37.756;2022-11-20T00:17:12;15.71;84.45
75380;HTU21D;64279;44.714;37.756;2022-11-20T00:18:15;15.72;84.36
75380;HTU21D;64279;44.714;37.756;2022-11-20T00:19:17;15.73;84.45
75380;HTU21D;64279;44.714;37.756;2022-11-20T00:20:20;15.74;84.35
75380;HTU21D;64279;44.714;37.756;2022-11-20T00:21:25;15.74;84.39
75380;HTU21D;64279;44.714;37.756;2022-11-20T00:22:28;15.76;84.41
75380;HTU21D;64279;44.714;37.756;2022-11-20T00:23:31;15.77;84.30
75380;HTU21D;64279;44.714;37.756;2022-11-20T00:24:34;15.80;84.37
75380;HTU21D;64279;44.714;37.756;2022-11-20T00:25:43;15.80;84.24
75380;HTU21D;64279;44.714;37.756;2022-11-20T00:26:46;15.82;84.37
75380;HTU21D;64279;44.714;37.756;2022-11-20T00:27:48;15.83;84.22
75380;HTU21D;64279;44.714;37.756;2022-11-20T00:28:54;15.84;84.27
75380;HTU21D;64279;44.714;37.756;2022-11-20T00:29:56;15.85;84.20
75380;HTU21D;64279;44.714;37.756;2022-11-20T00:31:07;15.87;84.21
75380;HTU21D;64279;44.714;37.756;2022-11-20T00:32:10;15.88;84.18
75380;HTU21D;64279;44.714;37.756;2022-11-20T00:33:12;15.88;84.07
75380;HTU21D;64279;44.714;37.756;2022-11-20T00:34:15;15.89;84.07
75380;HTU21D;64279;44.714;37.756;2022-11-20T00:35:18;15.92;84.03
75380;HTU21D;64279;44.714;37.756;2022-11-20T00:36:25;15.93;84.13
75380;HTU21D;64279;44.714;37.756;2022-11-20T00:37:28;15.93;84.10
75380;HTU21D;64279;44.714;37.756;2022-11-20T00:38:32;15.96;84.00
75380;HTU21D;64279;44.714;37.756;2022-11-20T00:39:34;15.96;83.96
75380;HTU21D;64279;44.714;37.756;2022-11-20T00:40:37;15.97;83.92
75380;HTU21D;64279;44.714;37.756;2022-11-20T00:41:39;15.98;83.87
75380;HTU21D;64279;44.714;37.756;2022-11-20T00:42:42;15.99;83.90
75380;HTU21D;64279;44.714;37.756;2022-11-20T00:43:45;16.00;83.97
75380;HTU21D;64279;44.714;37.756;2022-11-20T00:44:47;16.00;83.85
75380;HTU21D;64279;44.714;37.756;2022-11-20T00:45:50;16.01;83.97
75380;HTU21D;64279;44.714;37.756;2022-11-20T00:46:52;16.00;83.94
75380;HTU21D;64279;44.714;37.756;2022-11-20T00:47:55;16.01;83.85
75380;HTU21D;64279;44.714;37.756;2022-11-20T00:48:58;16.01;83.87
75380;HTU21D;64279;44.714;37.756;2022-11-20T00:50:00;16.02;83.84
75380;HTU21D;64279;44.714;37.756;2022-11-20T00:51:04;16.03;83.87
75380;HTU21D;64279;44.714;37.756;2022-11-20T00:52:07;16.03;83.76
75380;HTU21D;64279;44.714;37.756;2022-11-20T00:53:09;16.03;83.90
75380;HTU21D;64279;44.714;37.756;2022-11-20T00:54:12;16.04;83.85
75380;HTU21D;64279;44.714;37.756;2022-11-20T00:55:15;16.04;83.87
75380;HTU21D;64279;44.714;37.756;2022-11-20T00:56:18;16.04;83.83
75380;HTU21D;64279;44.714;37.756;2022-11-20T00:57:21;16.03;83.84
75380;HTU21D;64279;44.714;37.756;2022-11-20T00:58:28;16.04;83.84
75380;HTU21D;64279;44.714;37.756;2022-11-20T00:59:31;16.04;83.91
75380;HTU21D;64279;44.714;37.756;2022-11-20T01:00:34;16.05;83.90
75380;HTU21D;64279;44.714;37.756;2022-11-20T01:01:37;16.05;83.87
75380;HTU21D;64279;44.714;37.756;2022-11-20T01:02:39;16.04;84.02
75380;HTU21D;64279;44.714;37.756;2022-11-20T01:03:47;16.04;84.02
75380;HTU21D;64279;44.714;37.756;2022-11-20T01:04:50;16.04;84.00
75380;HTU21D;64279;44.714;37.756;2022-11-20T01:05:52;16.05;84.01
75380;HTU21D;64279;44.714;37.756;2022-11-20T01:06:55;16.04;83.91
75380;HTU21D;64279;44.714;37.756;2022-11-20T01:07:58;16.04;84.03
75380;HTU21D;64279;44.714;37.756;2022-11-20T01:09:04;16.04;84.05
75380;HTU21D;64279;44.714;37.756;2022-11-20T01:10:07;16.04;83.95
75380;HTU21D;64279;44.714;37.756;2022-11-20T01:11:22;16.05;84.03
75380;HTU21D;64279;44.714;37.756;2022-11-20T01:12:25;16.03;83.99
75380;HTU21D;64279;44.714;37.756;2022-11-20T01:13:28;16.03;84.06
75380;HTU21D;64279;44.714;37.756;2022-11-20T01:14:39;16.04;84.09
75380;HTU21D;64279;44.714;37.756;2022-11-20T01:15:42;16.02;84.07
75380;HTU21D;64279;44.714;37.756;2022-11-20T01:16:51;16.03;84.10
75380;HTU21D;64279;44.714;37.756;2022-11-20T01:17:54;16.03;84.10
75380;HTU21D;64279;44.714;37.756;2022-11-20T01:18:58;16.03;84.08
75380;HTU21D;64279;44.714;37.756;2022-11-20T01:20:02;16.04;84.12
75380;HTU21D;64279;44.714;37.756;2022-11-20T01:21:09;16.04;84.13
75380;HTU21D;64279;44.714;37.756;2022-11-20T01:22:12;16.04;84.15
75380;HTU21D;64279;44.714;37.756;2022-11-20T01:23:15;16.04;84.11
75380;HTU21D;64279;44.714;37.756;2022-11-20T01:24:19;16.03;84.16
75380;HTU21D;64279;44.714;37.756;2022-11-20T01:25:22;16.05;84.08
75380;HTU21D;64279;44.714;37.756;2022-11-20T01:26:27;16.05;84.16
75380;HTU21D;64279;44.714;37.756;2022-11-20T01:27:30;16.05;84.12
75380;HTU21D;64279;44.714;37.756;2022-11-20T01:28:33;16.05;84.10
75380;HTU21D;64279;44.714;37.756;2022-11-20T01:29:36;16.05;84.16
75380;HTU21D;64279;44.714;37.756;2022-11-20T01:30:39;16.05;84.15
75380;HTU21D;64279;44.714;37.756;2022-11-20T01:31:42;16.06;84.10
75380;HTU21D;64279;44.714;37.756;2022-11-20T01:32:44;16.06;84.16
75380;HTU21D;64279;44.714;37.756;2022-11-20T01:33:50;16.06;84.16
75380;HTU21D;64279;44.714;37.756;2022-11-20T01:34:52;16.05;84.06
75380;HTU21D;64279;44.714;37.756;2022-11-20T01:36:03;16.07;84.10
75380;HTU21D;64279;44.714;37.756;2022-11-20T01:37:06;16.06;84.13
75380;HTU21D;64279;44.714;37.756;2022-11-20T01:38:09;16.07;84.13
75380;HTU21D;64279;44.714;37.756;2022-11-20T01:39:14;16.08;84.16
75380;HTU21D;64279;44.714;37.756;2022-11-20T01:40:17;16.08;84.08
75380;HTU21D;64279;44.714;37.756;2022-11-20T01:41:21;16.08;84.10
75380;HTU21D;64279;44.714;37.756;2022-11-20T01:42:53;16.10;84.13
75380;HTU21D;64279;44.714;37.756;2022-11-20T01:44:22;16.10;84.07
75380;HTU21D;64279;44.714;37.756;2022-11-20T01:47:05;16.08;84.18
75380;HTU21D;64279;44.714;37.756;2022-11-20T01:48:09;16.10;84.10
75380;HTU21D;64279;44.714;37.756;2022-11-20T01:49:26;16.08;84.16
75380;HTU21D;64279;44.714;37.756;2022-11-20T01:50:29;16.11;84.15
75380;HTU21D;64279;44.714;37.756;2022-11-20T01:51:44;16.10;84.16
75380;HTU21D;64279;44.714;37.756;2022-11-20T01:52:55;16.08;84.29
75380;HTU21D;64279;44.714;37.756;2022-11-20T01:54:02;16.08;84.17
75380;HTU21D;64279;44.714;37.756;2022-11-20T01:55:09;16.10;84.21
75380;HTU21D;64279;44.714;37.756;2022-11-20T01:56:14;16.07;84.22
75380;HTU21D;64279;44.714;37.756;2022-11-20T01:57:17;16.07;84.26
75380;HTU21D;64279;44.714;37.756;2022-11-20T01:58:22;16.08;84.19
75380;HTU21D;64279;44.714;37.756;2022-11-20T01:59:29;16.08;84.21
75380;HTU21D;64279;44.714;37.756;2022-11-20T02:00:32;16.08;84.14
75380;HTU21D;64279;44.714;37.756;2022-11-20T02:01:35;16.10;84.22
75380;HTU21D;64279;44.714;37.756;2022-11-20T02:02:39;16.11;84.15
75380;HTU21D;64279;44.714;37.756;2022-11-20T02:03:43;16.11;84.19
75380;HTU21D;64279;44.714;37.756;2022-11-20T02:04:49;16.10;84.20
75380;HTU21D;64279;44.714;37.756;2022-11-20T02:06:05;16.12;84.13
75380;HTU21D;64279;44.714;37.756;2022-11-20T02:07:10;16.12;84.15
75380;HTU21D;64279;44.714;37.756;2022-11-20T02:08:13;16.11;84.14
75380;HTU21D;64279;44.714;37.756;2022-11-20T02:09:16;16.12;84.13
75380;HTU21D;64279;44.714;37.756;2022-11-20T02:10:19;16.12;84.13
75380;HTU21D;64279;44.714;37.756;2022-11-20T02:11:21;16.13;84.09
75380;HTU21D;64279;44.714;37.756;2022-11-20T02:12:24;16.14;84.10
75380;HTU21D;64279;44.714;37.756;2022-11-20T02:13:46;16.14;84.08
75380;HTU21D;64279;44.714;37.756;2022-11-20T02:14:48;16.13;84.12
75380;HTU21D;64279;44.714;37.756;2022-11-20T02:15:51;16.14;84.06
75380;HTU21D;64279;44.714;37.756;2022-11-20T02:16:55;16.15;84.07
75380;HTU21D;64279;44.714;37.756;2022-11-20T02:17:57;16.16;84.07
75380;HTU21D;64279;44.714;37.756;2022-11-20T02:19:02;16.14;84.00
75380;HTU21D;64279;44.714;37.756;2022-11-20T02:20:05;16.16;84.07
75380;HTU21D;64279;44.714;37.756;2022-11-20T02:22:53;16.17;84.04
75380;HTU21D;64279;44.714;37.756;2022-11-20T02:23:59;16.18;83.97
75380;HTU21D;64279;44.714;37.756;2022-11-20T02:25:03;16.19;83.97
75380;HTU21D;64279;44.714;37.756;2022-11-20T02:26:10;16.18;84.00
75380;HTU21D;64279;44.714;37.756;2022-11-20T02:27:16;16.18;84.00
75380;HTU21D;64279;44.714;37.756;2022-11-20T02:28:20;16.19;83.95
75380;HTU21D;64279;44.714;37.756;2022-11-20T02:29:35;16.20;83.91
75380;HTU21D;64279;44.714;37.756;2022-11-20T02:30:39;16.21;83.95
75380;HTU21D;64279;44.714;37.756;2022-11-20T02:31:42;16.20;83.87
75380;HTU21D;64279;44.714;37.756;2022-11-20T02:32:45;16.21;83.92
75380;HTU21D;64279;44.714;37.756;2022-11-20T02:33:56;16.21;83.87
75380;HTU21D;64279;44.714;37.756;2022-11-20T02:35:37;16.24;83.87
75380;HTU21D;64279;44.714;37.756;2022-11-20T02:36:33;16.25;83.84
75380;HTU21D;64279;44.714;37.756;2022-11-20T02:37:39;16.25;83.84
75380;HTU21D;64279;44.714;37.756;2022-11-20T02:38:43;16.26;83.80
75380;HTU21D;64279;44.714;37.756;2022-11-20T02:39:48;16.27;83.83
75380;HTU21D;64279;44.714;37.756;2022-11-20T02:40:51;16.26;83.76
75380;HTU21D;64279;44.714;37.756;2022-11-20T02:41:57;16.28;83.78
75380;HTU21D;64279;44.714;37.756;2022-11-20T02:42:59;16.29;83.75
75380;HTU21D;64279;44.714;37.756;2022-11-20T02:44:03;16.29;83.71
75380;HTU21D;64279;44.714;37.756;2022-11-20T02:45:07;16.30;83.79
75380;HTU21D;64279;44.714;37.756;2022-11-20T02:46:09;16.30;83.78
75380;HTU21D;64279;44.714;37.756;2022-11-20T02:47:12;16.29;83.78
75380;HTU21D;64279;44.714;37.756;2022-11-20T02:48:15;16.31;83.73
75380;HTU21D;64279;44.714;37.756;2022-11-20T02:49:18;16.32;83.74
75380;HTU21D;64279;44.714;37.756;2022-11-20T02:50:21;16.32;83.77
75380;HTU21D;64279;44.714;37.756;2022-11-20T02:51:24;16.32;83.78
75380;HTU21D;64279;44.714;37.756;2022-11-20T02:52:27;16.33;83.73
75380;HTU21D;64279;44.714;37.756;2022-11-20T02:53:29;16.34;83.71
75380;HTU21D;64279;44.714;37.756;2022-11-20T02:54:32;16.34;83.66
75380;HTU21D;64279;44.714;37.756;2022-11-20T02:55:35;16.36;83.65
75380;HTU21D;64279;44.714;37.756;2022-11-20T02:56:38;16.36;83.63
75380;HTU21D;64279;44.714;37.756;2022-11-20T02:57:41;16.35;83.63
75380;HTU21D;64279;44.714;37.756;2022-11-20T02:58:44;16.36;83.66
75380;HTU21D;64279;44.714;37.756;2022-11-20T02:59:46;16.36;83.67
75380;HTU21D;64279;44.714;37.756;2022-11-20T03:00:49;16.37;83.61
75380;HTU21D;64279;44.714;37.756;2022-11-20T03:01:51;16.37;83.65
75380;HTU21D;64279;44.714;37.756;2022-11-20T03:02:54;16.39;83.61
75380;HTU21D;64279;44.714;37.756;2022-11-20T03:03:56;16.39;83.69
75380;HTU21D;64279;44.714;37.756;2022-11-20T03:04:59;16.39;83.65
75380;HTU21D;64279;44.714;37.756;2022-11-20T03:06:01;16.39;83.63
75380;HTU21D;64279;44.714;37.756;2022-11-20T03:07:04;16.39;83.60
75380;HTU21D;64279;44.714;37.756;2022-11-20T03:08:07;16.40;83.64
75380;HTU21D;64279;44.714;37.756;2022-11-20T03:09:10;16.40;83.66
75380;HTU21D;64279;44.714;37.756;2022-11-20T03:10:12;16.39;83.68
75380;HTU21D;64279;44.714;37.756;2022-11-20T03:11:15;16.39;83.67
75380;HTU21D;64279;44.714;37.756;2022-11-20T03:12:17;16.40;83.69
75380;HTU21D;64279;44.714;37.756;2022-11-20T03:13:20;16.41;83.76
75380;HTU21D;64279;44.714;37.756;2022-11-20T03:14:23;16.41;83.70
75380;HTU21D;64279;44.714;37.756;2022-11-20T03:15:26;16.41;83.65
75380;HTU21D;64279;44.714;37.756;2022-11-20T03:16:28;16.41;83.67
75380;HTU21D;64279;44.714;37.756;2022-11-20T03:17:30;16.43;83.64
75380;HTU21D;64279;44.714;37.756;2022-11-20T03:18:33;16.42;83.70
75380;HTU21D;64279;44.714;37.756;2022-11-20T03:19:36;16.42;83.69
75380;HTU21D;64279;44.714;37.756;2022-11-20T03:20:38;16.42;83.72
75380;HTU21D;64279;44.714;37.756;2022-11-20T03:21:41;16.43;83.69
75380;HTU21D;64279;44.714;37.756;2022-11-20T03:22:43;16.44;83.74
75380;HTU21D;64279;44.714;37.756;2022-11-20T03:23:46;16.45;83.70
75380;HTU21D;64279;44.714;37.756;2022-11-20T03:24:49;16.44;83.69
75380;HTU21D;64279;44.714;37.756;2022-11-20T03:25:52;16.44;83.74
75380;HTU21D;64279;44.714;37.756;2022-11-20T03:26:54;16.45;83.66
75380;HTU21D;64279;44.714;37.756;2022-11-20T03:27:57;16.44;83.65
75380;HTU21D;64279;44.714;37.756;2022-11-20T03:29:01;16.45;83.66
75380;HTU21D;64279;44.714;37.756;2022-11-20T03:30:06;16.44;83.70
75380;HTU21D;64279;44.714;37.756;2022-11-20T03:31:11;16.47;83.62
75380;HTU21D;64279;44.714;37.756;2022-11-20T03:32:14;16.47;83.71
75380;HTU21D;64279;44.714;37.756;2022-11-20T03:33:17;16.46;83.69
75380;HTU21D;64279;44.714;37.756;2022-11-20T03:34:19;16.46;83.63
75380;HTU21D;64279;44.714;37.756;2022-11-20T03:35:22;16.47;83.67
75380;HTU21D;64279;44.714;37.756;2022-11-20T03:36:26;16.47;83.63
75380;HTU21D;64279;44.714;37.756;2022-11-20T03:37:28;16.47;83.65
75380;HTU21D;64279;44.714;37.756;2022-11-20T03:38:31;16.48;83.59
75380;HTU21D;64279;44.714;37.756;2022-11-20T03:39:34;16.49;83.65
75380;HTU21D;64279;44.714;37.756;2022-11-20T03:40:37;16.50;83.64
75380;HTU21D;64279;44.714;37.756;2022-11-20T03:41:41;16.50;83.60
75380;HTU21D;64279;44.714;37.756;2022-11-20T03:42:43;16.50;83.64
75380;HTU21D;64279;44.714;37.756;2022-11-20T03:43:53;16.50;83.61
75380;HTU21D;64279;44.714;37.756;2022-11-20T03:44:56;16.52;83.62
75380;HTU21D;64279;44.714;37.756;2022-11-20T03:45:59;16.51;83.60
75380;HTU21D;64279;44.714;37.756;2022-11-20T03:47:01;16.54;83.67
75380;HTU21D;64279;44.714;37.756;2022-11-20T03:48:04;16.50;83.65
75380;HTU21D;64279;44.714;37.756;2022-11-20T03:49:07;16.54;83.65
75380;HTU21D;64279;44.714;37.756;2022-11-20T03:50:11;16.54;83.58
75380;HTU21D;64279;44.714;37.756;2022-11-20T03:51:18;16.52;83.63
75380;HTU21D;64279;44.714;37.756;2022-11-20T03:52:20;16.52;83.55
75380;HTU21D;64279;44.714;37.756;2022-11-20T03:53:23;16.55;83.56
75380;HTU21D;64279;44.714;37.756;2022-11-20T03:54:25;16.54;83.65
75380;HTU21D;64279;44.714;37.756;2022-11-20T03:55:28;16.54;83.59
75380;HTU21D;64279;44.714;37.756;2022-11-20T03:56:33;16.55;83.55
75380;HTU21D;64279;44.714;37.756;2022-11-20T03:57:35;16.56;83.58
75380;HTU21D;64279;44.714;37.756;2022-11-20T03:58:39;16.55;83.58
75380;HTU21D;64279;44.714;37.756;2022-11-20T03:59:42;16.55;83.65
75380;HTU21D;64279;44.714;37.756;2022-11-20T04:00:44;16.56;83.63
75380;HTU21D;64279;44.714;37.756;2022-11-20T04:01:47;16.56;83.60
75380;HTU21D;64279;44.714;37.756;2022-11-20T04:02:50;16.56;83.55
75380;HTU21D;64279;44.714;37.756;2022-11-20T04:03:54;16.57;83.59
75380;HTU21D;64279;44.714;37.756;2022-11-20T04:04:57;16.57;83.52
75380;HTU21D;64279;44.714;37.756;2022-11-20T04:06:08;16.57;83.65
75380;HTU21D;64279;44.714;37.756;2022-11-20T04:07:11;16.57;83.65
75380;HTU21D;64279;44.714;37.756;2022-11-20T04:08:14;16.56;83.63
75380;HTU21D;64279;44.714;37.756;2022-11-20T04:09:16;16.58;83.64
75380;HTU21D;64279;44.714;37.756;2022-11-20T04:10:19;16.57;83.65
75380;HTU21D;64279;44.714;37.756;2022-11-20T04:11:27;16.58;83.66
75380;HTU21D;64279;44.714;37.756;2022-11-20T04:12:33;16.57;83.65
75380;HTU21D;64279;44.714;37.756;2022-11-20T04:13:36;16.58;83.60
75380;HTU21D;64279;44.714;37.756;2022-11-20T04:14:39;16.59;83.65
75380;HTU21D;64279;44.714;37.756;2022-11-20T04:15:41;16.58;83.63
75380;HTU21D;64279;44.714;37.756;2022-11-20T04:16:44;16.58;83.65
75380;HTU21D;64279;44.714;37.756;2022-11-20T04:17:47;16.57;83.61
75380;HTU21D;64279;44.714;37.756;2022-11-20T04:18:53;16.58;83.71
75380;HTU21D;64279;44.714;37.756;2022-11-20T04:19:56;16.58;83.65
75380;HTU21D;64279;44.714;37.756;2022-11-20T04:20:59;16.58;83.68
75380;HTU21D;64279;44.714;37.756;2022-11-20T04:22:02;16.58;83.73
75380;HTU21D;64279;44.714;37.756;2022-11-20T04:23:05;16.59;83.76
75380;HTU21D;64279;44.714;37.756;2022-11-20T04:24:07;16.60;83.62
75380;HTU21D;64279;44.714;37.756;2022-11-20T04:25:10;16.60;83.65
75380;HTU21D;64279;44.714;37.756;2022-11-20T04:26:12;16.61;83.71
75380;HTU21D;64279;44.714;37.756;2022-11-20T04:27:15;16.60;83.70
75380;HTU21D;64279;44.714;37.756;2022-11-20T04:28:18;16.60;83.74
75380;HTU21D;64279;44.714;37.756;2022-11-20T04:29:21;16.60;83.73
75380;HTU21D;64279;44.714;37.756;2022-11-20T04:30:24;16.59;83.74
75380;HTU21D;64279;44.714;37.756;2022-11-20T04:31:32;16.60;83.67
75380;HTU21D;64279;44.714;37.756;2022-11-20T04:32:35;16.61;83.74
75380;HTU21D;64279;44.714;37.756;2022-11-20T04:33:38;16.59;83.70
75380;HTU21D;64279;44.714;37.756;2022-11-20T04:34:40;16.60;83.66
75380;HTU21D;64279;44.714;37.756;2022-11-20T04:35:44;16.61;83.74
75380;HTU21D;64279;44.714;37.756;2022-11-20T04:36:48;16.60;83.73
75380;HTU21D;64279;44.714;37.756;2022-11-20T04:37:52;16.60;83.75
75380;HTU21D;64279;44.714;37.756;2022-11-20T04:38:56;16.61;83.72
75380;HTU21D;64279;44.714;37.756;2022-11-20T04:39:59;16.61;83.76
75380;HTU21D;64279;44.714;37.756;2022-11-20T04:41:04;16.62;83.75
75380;HTU21D;64279;44.714;37.756;2022-11-20T04:42:08;16.63;83.75
75380;HTU21D;64279;44.714;37.756;2022-11-20T04:43:30;16.62;83.78
75380;HTU21D;64279;44.714;37.756;2022-11-20T04:44:33;16.63;83.72
75380;HTU21D;64279;44.714;37.756;2022-11-20T04:45:36;16.61;83.74
75380;HTU21D;64279;44.714;37.756;2022-11-20T04:46:42;16.63;83.71
75380;HTU21D;64279;44.714;37.756;2022-11-20T04:47:45;16.63;83.71
75380;HTU21D;64279;44.714;37.756;2022-11-20T04:48:47;16.63;83.70
75380;HTU21D;64279;44.714;37.756;2022-11-20T04:49:50;16.65;83.71
75380;HTU21D;64279;44.714;37.756;2022-11-20T04:50:53;16.65;83.67
75380;HTU21D;64279;44.714;37.756;2022-11-20T04:51:56;16.65;83.59
75380;HTU21D;64279;44.714;37.756;2022-11-20T04:52:58;16.66;83.68
75380;HTU21D;64279;44.714;37.756;2022-11-20T04:54:01;16.69;83.59
75380;HTU21D;64279;44.714;37.756;2022-11-20T04:55:04;16.69;83.58
75380;HTU21D;64279;44.714;37.756;2022-11-20T04:56:08;16.69;83.57
75380;HTU21D;64279;44.714;37.756;2022-11-20T04:57:13;16.70;83.53
75380;HTU21D;64279;44.714;37.756;2022-11-20T04:58:16;16.72;83.49
75380;HTU21D;64279;44.714;37.756;2022-11-20T04:59:18;16.72;83.50
75380;HTU21D;64279;44.714;37.756;2022-11-20T05:00:21;16.72;83.46
75380;HTU21D;64279;44.714;37.756;2022-11-20T05:01:25;16.73;83.45
75380;HTU21D;64279;44.714;37.756;2022-11-20T05:02:27;16.75;83.41
75380;HTU21D;64279;44.714;37.756;2022-11-20T05:03:30;16.76;83.31
75380;HTU21D;64279;44.714;37.756;2022-11-20T05:04:33;16.77;83.37
75380;HTU21D;64279;44.714;37.756;2022-11-20T05:05:36;16.78;83.30
75380;HTU21D;64279;44.714;37.756;2022-11-20T05:06:38;16.79;83.28
75380;HTU21D;64279;44.714;37.756;2022-11-20T05:07:41;16.81;83.20
75380;HTU21D;64279;44.714;37.756;2022-11-20T05:08:43;16.82;83.22
75380;HTU21D;64279;44.714;37.756;2022-11-20T05:09:46;16.84;83.13
75380;HTU21D;64279;44.714;37.756;2022-11-20T05:10:49;16.84;83.12
75380;HTU21D;64279;44.714;37.756;2022-11-20T05:11:52;16.85;83.12
75380;HTU21D;64279;44.714;37.756;2022-11-20T05:12:54;16.84;83.13
75380;HTU21D;64279;44.714;37.756;2022-11-20T05:13:58;16.86;83.09
75380;HTU21D;64279;44.714;37.756;2022-11-20T05:15:01;16.85;83.08
75380;HTU21D;64279;44.714;37.756;2022-11-20T05:16:09;16.85;83.18
75380;HTU21D;64279;44.714;37.756;2022-11-20T05:17:13;16.85;83.18
75380;HTU21D;64279;44.714;37.756;2022-11-20T05:18:16;16.85;83.14
75380;HTU21D;64279;44.714;37.756;2022-11-20T05:19:19;16.84;83.15
75380;HTU21D;64279;44.714;37.756;2022-11-20T05:20:22;16.85;83.18
75380;HTU21D;64279;44.714;37.756;2022-11-20T05:21:24;16.85;83.22
75380;HTU21D;64279;44.714;37.756;2022-11-20T05:22:27;16.84;83.16
75380;HTU21D;64279;44.714;37.756;2022-11-20T05:23:30;16.84;83.20
75380;HTU21D;64279;44.714;37.756;2022-11-20T05:24:33;16.84;83.26
75380;HTU21D;64279;44.714;37.756;2022-11-20T05:25:35;16.84;83.19
75380;HTU21D;64279;44.714;37.756;2022-11-20T05:26:38;16.84;83.28
75380;HTU21D;64279;44.714;37.756;2022-11-20T05:27:41;16.84;83.26
75380;HTU21D;64279;44.714;37.756;2022-11-20T05:28:45;16.82;83.23
75380;HTU21D;64279;44.714;37.756;2022-11-20T05:29:47;16.84;83.28
75380;HTU21D;64279;44.714;37.756;2022-11-20T05:30:50;16.85;83.31
75380;HTU21D;64279;44.714;37.756;2022-11-20T05:31:53;16.85;83.24
75380;HTU21D;64279;44.714;37.756;2022-11-20T05:32:56;16.86;83.24
75380;HTU21D;64279;44.714;37.756;2022-11-20T05:33:58;16.86;83.24
75380;HTU21D;64279;44.714;37.756;2022-11-20T05:35:01;16.86;83.21
75380;HTU21D;64279;44.714;37.756;2022-11-20T05:36:04;16.86;83.20
75380;HTU21D;64279;44.714;37.756;2022-11-20T05:37:06;16.87;83.17
75380;HTU21D;64279;44.714;37.756;2022-11-20T05:38:09;16.87;83.21
75380;HTU21D;64279;44.714;37.756;2022-11-20T05:39:12;16.87;83.21
75380;HTU21D;64279;44.714;37.756;2022-11-20T05:40:14;16.87;83.26
75380;HTU21D;64279;44.714;37.756;2022-11-20T05:41:18;16.87;83.23
75380;HTU21D;64279;44.714;37.756;2022-11-20T05:42:21;16.87;83.19
75380;HTU21D;64279;44.714;37.756;2022-11-20T05:43:34;16.90;83.21
75380;HTU21D;64279;44.714;37.756;2022-11-20T05:44:37;16.89;83.16
75380;HTU21D;64279;44.714;37.756;2022-11-20T05:45:39;16.91;83.13
75380;HTU21D;64279;44.714;37.756;2022-11-20T05:46:42;16.92;83.07
75380;HTU21D;64279;44.714;37.756;2022-11-20T05:47:44;16.93;83.05
75380;HTU21D;64279;44.714;37.756;2022-11-20T05:48:47;16.94;83.05
75380;HTU21D;64279;44.714;37.756;2022-11-20T05:49:50;16.96;82.99
75380;HTU21D;64279;44.714;37.756;2022-11-20T05:50:52;16.98;82.93
75380;HTU21D;64279;44.714;37.756;2022-11-20T05:51:55;17.00;82.86
75380;HTU21D;64279;44.714;37.756;2022-11-20T05:52:59;17.03;82.81
75380;HTU21D;64279;44.714;37.756;2022-11-20T05:54:01;17.03;82.77
75380;HTU21D;64279;44.714;37.756;2022-11-20T05:55:04;17.07;82.67
75380;HTU21D;64279;44.714;37.756;2022-11-20T05:56:10;17.09;82.57
75380;HTU21D;64279;44.714;37.756;2022-11-20T05:57:13;17.11;82.54
75380;HTU21D;64279;44.714;37.756;2022-11-20T05:58:16;17.14;82.49
75380;HTU21D;64279;44.714;37.756;2022-11-20T05:59:18;17.16;82.39
75380;HTU21D;64279;44.714;37.756;2022-11-20T06:00:22;17.18;82.35
75380;HTU21D;64279;44.714;37.756;2022-11-20T06:01:25;17.19;82.29
75380;HTU21D;64279;44.714;37.756;2022-11-20T06:02:28;17.20;82.27
75380;HTU21D;64279;44.714;37.756;2022-11-20T06:03:31;17.20;82.25
75380;HTU21D;64279;44.714;37.756;2022-11-20T06:04:34;17.20;82.28
75380;HTU21D;64279;44.714;37.756;2022-11-20T06:05:36;17.20;82.29
75380;HTU21D;64279;44.714;37.756;2022-11-20T06:06:39;17.21;82.29
75380;HTU21D;64279;44.714;37.756;2022-11-20T06:07:42;17.20;82.31
75380;HTU21D;64279;44.714;37.756;2022-11-20T06:08:45;17.22;82.32
75380;HTU21D;64279;44.714;37.756;2022-11-20T06:09:48;17.22;82.39
75380;HTU21D;64279;44.714;37.756;2022-11-20T06:10:58;17.21;82.36
75380;HTU21D;64279;44.714;37.756;2022-11-20T06:12:01;17.21;82.41
75380;HTU21D;64279;44.714;37.756;2022-11-20T06:13:04;17.22;82.37
75380;HTU21D;64279;44.714;37.756;2022-11-20T06:14:07;17.21;82.42
75380;HTU21D;64279;44.714;37.756;2022-11-20T06:15:10;17.21;82.43
75380;HTU21D;64279;44.714;37.756;2022-11-20T06:16:14;17.22;82.41
75380;HTU21D;64279;44.714;37.756;2022-11-20T06:17:17;17.21;82.46
75380;HTU21D;64279;44.714;37.756;2022-11-20T06:18:20;17.21;82.52
75380;HTU21D;64279;44.714;37.756;2022-11-20T06:19:22;17.20;82.56
75380;HTU21D;64279;44.714;37.756;2022-11-20T06:20:25;17.18;82.55
75380;HTU21D;64279;44.714;37.756;2022-11-20T06:21:28;17.18;82.62
75380;HTU21D;64279;44.714;37.756;2022-11-20T06:22:32;17.18;82.67
75380;HTU21D;64279;44.714;37.756;2022-11-20T06:23:35;17.16;82.72
75380;HTU21D;64279;44.714;37.756;2022-11-20T06:24:38;17.16;82.71
75380;HTU21D;64279;44.714;37.756;2022-11-20T06:25:41;17.15;82.72
75380;HTU21D;64279;44.714;37.756;2022-11-20T06:26:44;17.16;82.75
75380;HTU21D;64279;44.714;37.756;2022-11-20T06:27:47;17.18;82.73
75380;HTU21D;64279;44.714;37.756;2022-11-20T06:28:50;17.18;82.77
75380;HTU21D;64279;44.714;37.756;2022-11-20T06:29:53;17.19;82.67
75380;HTU21D;64279;44.714;37.756;2022-11-20T06:30:55;17.20;82.63
75380;HTU21D;64279;44.714;37.756;2022-11-20T06:31:58;17.21;82.63
75380;HTU21D;64279;44.714;37.756;2022-11-20T06:33:01;17.22;82.59
75380;HTU21D;64279;44.714;37.756;2022-11-20T06:34:04;17.23;82.58
75380;HTU21D;64279;44.714;37.756;2022-11-20T06:35:08;17.25;82.55